createdAt,value
2018-12-19T00:05:03.511Z,11.87
2018-12-19T00:10:12.228Z,11.63
2018-12-19T00:15:20.026Z,12.65
2018-12-19T00:20:27.404Z,11.83
2018-12-19T00:25:35.171Z,10.47
2018-12-19T00:30:44.798Z,9.47
2018-12-19T00:35:53.535Z,12.37
2018-12-19T00:41:04.895Z,13.60
2018-12-19T00:46:15.496Z,9.40
2018-12-19T00:51:25.664Z,9.40
2018-12-19T00:56:36.672Z,8.63
2018-12-19T01:01:46.249Z,8.07
2018-12-19T01:06:55.551Z,8.50
2018-12-19T01:12:03.889Z,8.30
2018-12-19T01:17:09.848Z,11.03
2018-12-19T01:22:17.614Z,10.10
2018-12-19T01:27:26.746Z,8.73
2018-12-19T01:32:33.306Z,7.97
2018-12-19T01:37:43.205Z,7.00
2018-12-19T01:42:52.601Z,8.40
2018-12-19T01:48:01.354Z,6.17
2018-12-19T01:53:09.644Z,7.17
2018-12-19T01:58:20.137Z,7.30
2018-12-19T02:03:28.687Z,7.00
2018-12-19T02:08:36.299Z,6.53
2018-12-19T02:13:45.187Z,6.50
2018-12-19T02:18:54.079Z,4.97
2018-12-19T02:24:01.982Z,7.07
2018-12-19T02:29:09.851Z,5.60
2018-12-19T02:34:20.298Z,6.20
2018-12-19T02:39:35.940Z,7.03
2018-12-19T02:44:38.764Z,6.10
2018-12-19T02:49:47.509Z,5.60
2018-12-19T02:54:56.547Z,5.03
2018-12-19T03:00:05.761Z,6.97
2018-12-19T03:05:14.162Z,4.00
2018-12-19T03:10:23.681Z,5.90
2018-12-19T03:15:32.359Z,6.80
2018-12-19T03:20:41.141Z,4.13
2018-12-19T03:25:49.995Z,4.87
2018-12-19T03:31:01.064Z,4.07
2018-12-19T03:36:08.689Z,4.87
2018-12-19T03:41:17.877Z,3.27
2018-12-19T03:46:23.657Z,5.35
2018-12-19T03:51:32.743Z,3.90
2018-12-19T03:56:43.296Z,4.22
2018-12-19T04:01:52.183Z,5.13
2018-12-19T04:06:59.344Z,4.27
2018-12-19T04:12:10.869Z,6.00
2018-12-19T04:17:18.674Z,3.20
2018-12-19T04:22:30.055Z,5.00
2018-12-19T04:27:37.860Z,3.33
2018-12-19T04:32:46.409Z,4.73
2018-12-19T04:37:53.625Z,5.23
2018-12-19T04:43:02.557Z,7.50
2018-12-19T04:48:13.280Z,4.33
2018-12-19T04:53:23.981Z,5.23
2018-12-19T04:58:34.852Z,5.03
2018-12-19T05:03:42.770Z,8.68
2018-12-19T05:08:52.620Z,5.10
2018-12-19T05:15:03.945Z,5.25
2018-12-19T05:20:14.368Z,7.37
2018-12-19T05:25:23.372Z,6.92
2018-12-19T05:30:33.256Z,8.13
2018-12-19T05:35:43.708Z,6.10
2018-12-19T05:40:52.741Z,12.00
2018-12-19T05:46:01.477Z,6.73
2018-12-19T05:51:08.396Z,9.87
2018-12-19T05:56:21.535Z,7.92
2018-12-19T06:01:30.246Z,6.77
2018-12-19T06:06:40.141Z,9.13
2018-12-19T06:11:53.364Z,9.50
2018-12-19T06:17:07.457Z,8.50
2018-12-19T06:22:14.728Z,8.27
2018-12-19T06:27:22.019Z,8.65
2018-12-19T06:32:30.818Z,9.07
2018-12-19T06:37:37.254Z,9.07
2018-12-19T06:42:48.652Z,9.30
2018-12-19T06:47:59.412Z,9.47
2018-12-19T06:53:06.733Z,10.60
2018-12-19T06:58:16.800Z,10.58
2018-12-19T07:03:25.407Z,12.60
2018-12-19T07:08:34.030Z,11.67
2018-12-19T07:13:43.588Z,12.15
2018-12-19T07:18:51.777Z,11.00
2018-12-19T07:23:59.553Z,11.07
2018-12-19T07:29:06.120Z,12.23
2018-12-19T07:34:14.876Z,12.10
2018-12-19T07:39:22.431Z,12.33
2018-12-19T07:44:32.089Z,13.10
2018-12-19T07:49:40.010Z,13.23
2018-12-19T07:54:50.855Z,15.37
2018-12-19T07:59:59.174Z,14.37
2018-12-19T08:05:09.371Z,14.27
2018-12-19T08:10:17.866Z,14.97
2018-12-19T08:15:25.844Z,15.45
2018-12-19T08:20:56.036Z,16.50
2018-12-19T08:26:02.593Z,14.93
2018-12-19T08:31:11.312Z,15.70
2018-12-19T08:36:21.813Z,16.30
2018-12-19T08:41:29.675Z,16.33
2018-12-19T08:46:37.325Z,14.27
2018-12-19T08:51:45.713Z,13.80
2018-12-19T08:56:53.106Z,16.00
2018-12-19T09:02:01.855Z,14.37
2018-12-19T09:07:10.245Z,14.67
2018-12-19T09:12:22.587Z,14.63
2018-12-19T09:17:32.706Z,13.23
2018-12-19T09:22:42.286Z,12.33
2018-12-19T09:27:52.004Z,12.47
2018-12-19T09:33:01.351Z,11.17
2018-12-19T09:38:10.949Z,11.23
2018-12-19T09:43:19.648Z,12.33
2018-12-19T09:48:32.461Z,9.37
2018-12-19T09:53:42.039Z,11.07
2018-12-19T09:58:50.803Z,10.57
2018-12-19T10:03:59.946Z,9.77
2018-12-19T10:09:14.804Z,8.67
2018-12-19T10:14:24.329Z,8.80
2018-12-19T10:19:37.886Z,9.33
2018-12-19T10:25:04.320Z,8.57
2018-12-19T10:30:15.045Z,10.10
2018-12-19T10:35:52.125Z,8.60
2018-12-19T10:41:02.111Z,8.50
2018-12-19T10:46:10.022Z,10.67
2018-12-19T10:51:19.752Z,9.03
2018-12-19T10:56:31.167Z,18.47
2018-12-19T11:01:38.920Z,8.60
2018-12-19T11:06:46.974Z,10.83
2018-12-19T11:12:04.548Z,13.87
2018-12-19T11:17:27.563Z,6.50
2018-12-19T11:22:33.649Z,8.87
2018-12-19T11:27:42.086Z,7.53
2018-12-19T11:32:58.294Z,5.67
2018-12-19T11:38:08.580Z,10.17
2018-12-19T11:43:18.776Z,7.20
2018-12-19T11:48:28.709Z,9.85
2018-12-19T11:53:37.544Z,7.83
2018-12-19T11:58:46.381Z,6.50
2018-12-19T12:03:53.736Z,6.27
2018-12-19T12:08:59.119Z,5.87
2018-12-19T12:14:07.969Z,6.00
2018-12-19T12:19:18.501Z,8.45
2018-12-19T12:24:28.224Z,5.87
2018-12-19T12:29:41.662Z,6.80
2018-12-19T12:34:52.015Z,6.60
2018-12-19T12:39:59.112Z,6.57
2018-12-19T12:45:13.349Z,8.48
2018-12-19T12:50:23.007Z,5.87
2018-12-19T12:55:36.048Z,8.43
2018-12-19T13:00:45.159Z,10.10
2018-12-19T13:05:54.424Z,6.50
2018-12-19T13:11:01.587Z,6.03
2018-12-19T13:16:09.471Z,5.90
2018-12-19T13:21:17.910Z,5.70
2018-12-19T13:26:27.573Z,5.35
2018-12-19T13:31:35.494Z,6.70
2018-12-19T13:36:44.209Z,8.83
2018-12-19T13:41:52.436Z,5.87
2018-12-19T13:47:02.143Z,7.40
2018-12-19T13:52:10.192Z,6.83
2018-12-19T13:57:17.659Z,7.17
2018-12-19T14:02:26.395Z,6.73
2018-12-19T14:07:35.443Z,8.70
2018-12-19T14:12:42.152Z,5.43
2018-12-19T14:17:49.935Z,8.77
2018-12-19T14:22:55.764Z,8.43
2018-12-19T14:28:08.354Z,6.77
2018-12-19T14:33:19.026Z,8.40
2018-12-19T14:38:27.210Z,6.25
2018-12-19T14:43:34.385Z,6.87
2018-12-19T14:48:43.243Z,6.40
2018-12-19T14:53:52.896Z,6.27
2018-12-19T14:59:03.182Z,7.20
2018-12-19T15:04:12.918Z,4.73
2018-12-19T15:09:22.483Z,5.45
2018-12-19T15:14:30.081Z,6.57
2018-12-19T15:19:36.824Z,11.27
2018-12-19T15:24:47.393Z,5.08
2018-12-19T15:29:54.532Z,9.33
2018-12-19T15:35:02.447Z,5.63
2018-12-19T15:40:13.369Z,8.77
2018-12-19T15:45:22.531Z,7.30
2018-12-19T15:50:31.915Z,8.57
2018-12-19T15:55:38.923Z,10.63
2018-12-19T16:00:48.263Z,9.33
2018-12-19T16:05:55.472Z,6.97
2018-12-19T16:11:02.209Z,4.90
2018-12-19T16:16:11.715Z,8.50
2018-12-19T16:21:18.087Z,5.47
2018-12-19T16:26:26.691Z,6.55
2018-12-19T16:31:35.240Z,6.63
2018-12-19T16:36:45.090Z,10.97
2018-12-19T16:41:52.793Z,8.93
2018-12-19T16:47:02.403Z,5.50
2018-12-19T16:52:10.506Z,7.43
2018-12-19T16:57:18.321Z,11.73
2018-12-19T17:02:26.430Z,8.23
2018-12-19T17:07:34.630Z,5.17
2018-12-19T17:12:40.075Z,7.90
2018-12-19T17:17:47.553Z,11.03
2018-12-19T17:22:56.292Z,9.73
2018-12-19T17:28:02.940Z,8.20
2018-12-19T17:33:12.639Z,8.50
2018-12-19T17:38:22.181Z,5.43
2018-12-19T17:43:35.307Z,6.73
2018-12-19T17:48:42.430Z,9.30
2018-12-19T17:53:54.034Z,7.10
2018-12-19T17:58:59.235Z,10.07
2018-12-19T18:04:11.359Z,7.93
2018-12-19T18:09:22.827Z,8.57
2018-12-19T18:14:31.812Z,7.33
2018-12-19T18:19:40.195Z,7.37
2018-12-19T18:24:49.986Z,9.30
2018-12-19T18:29:57.788Z,8.20
2018-12-19T18:35:06.800Z,11.07
2018-12-19T18:40:14.172Z,6.30
2018-12-19T18:45:24.275Z,5.65
2018-12-19T18:50:32.517Z,7.77
2018-12-19T18:55:40.575Z,7.17
2018-12-19T19:00:49.335Z,9.70
2018-12-19T19:05:58.995Z,8.30
2018-12-19T19:11:07.262Z,9.70
2018-12-19T19:16:16.680Z,7.55
2018-12-19T19:21:24.906Z,7.80
2018-12-19T19:26:33.980Z,11.88
2018-12-19T19:31:40.406Z,10.77
2018-12-19T19:36:54.976Z,11.37
2018-12-19T19:42:03.304Z,9.50
2018-12-19T19:47:11.491Z,8.27
2018-12-19T19:52:20.286Z,9.33
2018-12-19T19:57:29.820Z,11.07
2018-12-19T20:02:35.782Z,10.13
2018-12-19T20:07:42.976Z,11.57
2018-12-19T20:12:50.345Z,11.70
2018-12-19T20:17:58.132Z,13.03
2018-12-19T20:23:06.057Z,10.23
2018-12-19T20:28:12.691Z,10.60
2018-12-19T20:33:20.276Z,7.70
2018-12-19T20:38:28.158Z,10.47
2018-12-19T20:43:39.947Z,11.37
2018-12-19T20:48:49.263Z,10.00
2018-12-19T20:53:58.020Z,6.83
2018-12-19T20:59:07.530Z,10.13
2018-12-19T21:04:19.204Z,8.78
2018-12-19T21:09:27.413Z,7.03
2018-12-19T21:14:35.205Z,10.33
2018-12-19T21:19:43.163Z,9.60
2018-12-19T21:24:55.807Z,9.57
2018-12-19T21:30:05.861Z,9.70
2018-12-19T21:35:15.552Z,11.23
2018-12-19T21:40:23.425Z,11.00
2018-12-19T21:45:33.999Z,10.27
2018-12-19T21:51:04.958Z,15.47
2018-12-19T21:56:15.350Z,10.20
2018-12-19T22:01:22.774Z,9.68
2018-12-19T22:06:29.893Z,7.93
2018-12-19T22:11:37.056Z,10.50
2018-12-19T22:17:02.142Z,10.00
2018-12-19T22:22:10.407Z,7.60
2018-12-19T22:27:16.775Z,9.73
2018-12-19T22:32:26.280Z,9.08
2018-12-19T22:37:36.353Z,8.60
2018-12-19T22:42:48.450Z,6.97
2018-12-19T22:47:58.895Z,8.63
2018-12-19T22:53:05.976Z,12.87
2018-12-19T22:58:13.310Z,9.23
2018-12-19T23:03:22.963Z,8.18
2018-12-19T23:08:30.219Z,8.67
2018-12-19T23:13:37.245Z,11.00
2018-12-19T23:18:47.365Z,8.97
2018-12-19T23:24:15.805Z,8.93
2018-12-19T23:29:25.362Z,9.47
2018-12-19T23:34:34.256Z,15.10
2018-12-19T23:39:41.154Z,9.40
2018-12-19T23:44:51.680Z,8.53
2018-12-19T23:49:59.867Z,10.03
2018-12-19T23:55:07.077Z,12.73
